Time;durP1;ratioP1;P1;durP2;ratioP2;P2;SDS_P1;SDS_P2;PMS_P1;PMS_P2;Temp;Humidity;BMP_temperature;BMP_pressure;BME280_temperature;BME280_humidity;BME280_pressure;Samples;Min_cycle;Max_cycle;Signal;HPM_P1;HPM_P2
2022/12/19 00:01:30;;;;;;;5.93;4.07;;;7.40;99.90;;;;;;4959904;29;20031;-93
2022/12/19 00:04:09;;;;;;;3.58;2.70;;;7.50;99.90;;;;;;4961519;29;20012;-93
2022/12/19 00:06:41;;;;;;;3.20;2.70;;;7.50;99.90;;;;;;4961514;29;20087;-92
2022/12/19 00:09:09;;;;;;;4.18;3.10;;;7.50;99.90;;;;;;4965461;28;20019;-92
2022/12/19 00:11:37;;;;;;;4.28;2.92;;;7.60;99.90;;;;;;4962883;29;20040;-94
2022/12/19 00:14:08;;;;;;;3.03;2.35;;;7.60;99.90;;;;;;4968323;28;20027;-95
2022/12/19 00:16:37;;;;;;;2.90;2.55;;;7.60;99.90;;;;;;4961982;29;20076;-93
2022/12/19 00:19:03;;;;;;;4.28;3.00;;;7.60;99.90;;;;;;4966832;29;20019;-94
2022/12/19 00:21:31;;;;;;;2.10;1.90;;;7.70;99.90;;;;;;4966671;29;20030;-93
2022/12/19 00:24:06;;;;;;;2.30;2.10;;;7.70;99.90;;;;;;4964278;29;20019;-94
2022/12/19 00:26:41;;;;;;;2.35;2.13;;;7.70;99.90;;;;;;4946869;29;20040;-95
2022/12/19 00:29:15;;;;;;;2.65;2.25;;;7.70;99.90;;;;;;4961734;29;20051;-92
2022/12/19 00:31:46;;;;;;;2.78;2.00;;;7.80;99.90;;;;;;4971246;28;20020;-95
2022/12/19 00:34:15;;;;;;;3.03;2.50;;;7.80;99.90;;;;;;4966075;29;20046;-95
2022/12/19 00:36:40;;;;;;;3.55;3.05;;;7.80;99.90;;;;;;4944692;29;20047;-94
2022/12/19 00:39:06;;;;;;;3.22;2.33;;;7.80;99.90;;;;;;4960437;28;20044;-93
2022/12/19 00:41:35;;;;;;;3.30;2.88;;;7.80;99.90;;;;;;4951286;29;20037;-93
2022/12/19 00:44:03;;;;;;;4.97;2.70;;;7.90;99.90;;;;;;4956279;29;20047;-92
2022/12/19 00:46:31;;;;;;;3.20;2.35;;;7.90;99.90;;;;;;4962316;29;20031;-94
2022/12/19 00:48:57;;;;;;;3.33;2.35;;;7.90;99.90;;;;;;4940753;29;20131;-93
2022/12/19 00:51:27;;;;;;;2.78;1.83;;;7.90;99.90;;;;;;4947147;29;20489;-93
2022/12/19 00:53:55;;;;;;;3.72;1.90;;;8.00;99.90;;;;;;4951754;29;20028;-93
2022/12/19 00:56:33;;;;;;;1.50;1.08;;;8.00;99.90;;;;;;4959305;29;20027;-94
2022/12/19 00:59:00;;;;;;;1.85;1.20;;;8.00;99.90;;;;;;4953972;29;20035;-94
2022/12/19 01:01:33;;;;;;;1.73;1.00;;;8.00;99.90;;;;;;4973095;28;20079;-91
2022/12/19 01:04:02;;;;;;;1.63;1.00;;;8.00;99.90;;;;;;4968352;28;20011;-93
2022/12/19 01:06:28;;;;;;;0.63;0.63;;;8.00;99.90;;;;;;4970373;28;20030;-92
2022/12/19 01:08:56;;;;;;;1.05;0.80;;;8.10;99.90;;;;;;4968846;28;20027;-91
2022/12/19 01:12:44;;;;;;;1.23;1.08;;;8.10;99.90;;;;;;4955002;29;20032;-94
2022/12/19 01:14:14;;;;;;;1.90;1.40;;;8.10;99.90;;;;;;4967817;28;20042;-94
2022/12/19 01:16:41;;;;;;;2.50;2.00;;;8.20;99.90;;;;;;4956221;29;20075;-95
2022/12/19 01:19:07;;;;;;;2.67;2.17;;;8.20;99.90;;;;;;4949959;29;20031;-93
2022/12/19 01:21:33;;;;;;;3.30;2.88;;;8.30;99.90;;;;;;4933223;29;20031;-92
2022/12/19 01:24:02;;;;;;;4.72;3.38;;;8.30;99.90;;;;;;4946203;29;20047;-93
2022/12/19 01:26:32;;;;;;;6.03;3.53;;;8.40;99.90;;;;;;4964618;28;20016;-95
2022/12/19 01:28:58;;;;;;;5.95;4.50;;;8.40;99.90;;;;;;4966090;28;20043;-95
2022/12/19 01:31:25;;;;;;;6.07;3.63;;;8.40;99.90;;;;;;4965617;28;20099;-93
2022/12/19 01:33:52;;;;;;;6.25;4.40;;;8.40;99.90;;;;;;4962878;29;20027;-94
2022/12/19 01:36:20;;;;;;;7.30;4.97;;;8.50;99.90;;;;;;4947704;29;20039;-91
2022/12/19 01:38:54;;;;;;;8.73;5.15;;;8.50;99.90;;;;;;4964364;29;20039;-96
2022/12/19 01:41:20;;;;;;;8.15;5.47;;;8.50;99.90;;;;;;4961828;29;20036;-93
2022/12/19 01:44:02;;;;;;;8.10;5.43;;;8.60;99.90;;;;;;4952175;29;20497;-93
2022/12/19 01:46:56;;;;;;;7.68;5.88;;;8.60;99.90;;;;;;4957176;29;19999;-95
2022/12/19 01:49:35;;;;;;;8.85;5.65;;;8.60;99.90;;;;;;4955130;29;20398;-95
2022/12/19 01:52:05;;;;;;;7.65;5.63;;;8.60;99.90;;;;;;4949515;29;20020;-94
2022/12/19 01:54:37;;;;;;;9.65;6.32;;;8.60;99.90;;;;;;4948567;29;20031;-93
2022/12/19 01:57:08;;;;;;;10.02;5.65;;;8.70;99.90;;;;;;4946432;29;20039;-95
2022/12/19 01:59:45;;;;;;;10.75;6.13;;;8.70;99.90;;;;;;4944527;29;20055;-94
2022/12/19 02:02:16;;;;;;;11.18;6.85;;;8.70;99.90;;;;;;4938162;29;20019;-92
2022/12/19 02:04:45;;;;;;;10.00;7.13;;;8.70;99.90;;;;;;4927234;29;20055;-94
2022/12/19 02:07:11;;;;;;;11.75;6.93;;;8.70;99.90;;;;;;4916792;29;20028;-94
2022/12/19 02:09:37;;;;;;;9.80;6.60;;;8.80;99.90;;;;;;4915818;29;20036;-95
2022/12/19 02:12:03;;;;;;;11.27;7.18;;;8.70;99.90;;;;;;4922301;29;20035;-93
2022/12/19 02:14:29;;;;;;;12.60;7.43;;;8.70;99.90;;;;;;4919564;29;20091;-95
2022/12/19 02:17:26;;;;;;;11.93;7.85;;;8.70;99.90;;;;;;4916485;29;20506;-92
2022/12/19 02:20:29;;;;;;;13.60;7.43;;;8.70;99.90;;;;;;4899294;29;20044;-93
2022/12/19 02:23:07;;;;;;;13.60;7.22;;;8.70;99.90;;;;;;4899426;29;20028;-94
2022/12/19 02:26:10;;;;;;;13.00;7.57;;;8.70;99.90;;;;;;4900071;29;20024;-94
2022/12/19 02:28:47;;;;;;;13.55;7.78;;;8.70;99.90;;;;;;4899160;29;20092;-94
2022/12/19 02:31:37;;;;;;;13.82;8.90;;;8.70;99.90;;;;;;4898808;29;20095;-92
2022/12/19 02:34:03;;;;;;;12.13;7.07;;;8.80;99.90;;;;;;4899592;29;20044;-93
2022/12/19 02:36:47;;;;;;;12.48;8.05;;;8.80;99.90;;;;;;4900715;29;20036;-92
2022/12/19 02:39:31;;;;;;;12.88;7.68;;;8.80;99.90;;;;;;4899113;29;20028;-92
2022/12/19 02:42:00;;;;;;;12.35;8.23;;;8.90;99.90;;;;;;4899378;29;20167;-92
2022/12/19 02:44:34;;;;;;;14.45;8.80;;;8.80;99.90;;;;;;4899012;29;20172;-94
2022/12/19 02:47:02;;;;;;;15.48;8.45;;;8.80;99.90;;;;;;4900485;29;20048;-90
2022/12/19 02:49:33;;;;;;;15.23;7.60;;;8.80;99.90;;;;;;4900559;29;20168;-91
2022/12/19 02:52:34;;;;;;;14.82;7.90;;;8.80;99.90;;;;;;4899771;29;20119;-91
2022/12/19 02:55:05;;;;;;;;;;;8.90;99.90;;;;;;4839780;29;20106;-93
2022/12/19 02:58:20;;;;;;;14.65;7.18;;;8.90;99.90;;;;;;4858836;29;20627;-92
2022/12/19 03:01:21;;;;;;;13.07;7.50;;;8.90;99.90;;;;;;4858868;29;20085;-94
2022/12/19 03:03:57;;;;;;;12.65;7.47;;;8.90;99.90;;;;;;4861575;29;20041;-91
2022/12/19 03:06:22;;;;;;;14.98;7.70;;;8.80;99.90;;;;;;4862808;29;20037;-92
2022/12/19 03:09:00;;;;;;;14.45;8.13;;;8.80;99.90;;;;;;4868704;29;20041;-96
2022/12/19 03:11:33;;;;;;;14.93;8.57;;;8.80;99.90;;;;;;4869577;29;20026;-94
2022/12/19 03:14:04;;;;;;;16.75;8.32;;;8.80;99.90;;;;;;4868348;29;20468;-95
2022/12/19 03:16:35;;;;;;;15.52;7.93;;;8.90;99.90;;;;;;4867504;29;20053;-95
2022/12/19 03:19:03;;;;;;;;;;;9.00;99.90;;;;;;4864230;29;20127;-93
2022/12/19 03:21:35;;;;;;;9.63;6.28;;;9.00;99.90;;;;;;4863053;29;19912;-92
2022/12/19 03:24:03;;;;;;;18.15;7.30;;;9.10;99.90;;;;;;4863059;29;20029;-95
2022/12/19 03:26:32;;;;;;;12.20;6.72;;;9.10;99.90;;;;;;4861591;29;20057;-93
2022/12/19 03:29:14;;;;;;;11.75;7.00;;;9.10;99.90;;;;;;4889795;29;20130;-93
2022/12/19 03:31:42;;;;;;;12.10;7.28;;;9.20;99.90;;;;;;4918657;29;20032;-92
2022/12/19 03:34:28;;;;;;;14.57;7.65;;;9.20;99.90;;;;;;4918082;29;20475;-93
2022/12/19 03:36:58;;;;;;;12.35;6.78;;;9.20;99.90;;;;;;4918562;29;20043;-92
2022/12/19 03:39:25;;;;;;;13.35;6.55;;;9.20;99.90;;;;;;4918285;29;20024;-92
2022/12/19 03:44:40;;;;;;;10.15;5.40;;;9.30;99.90;;;;;;4919242;29;20038;-93
2022/12/19 03:47:18;;;;;;;9.05;5.75;;;9.30;99.90;;;;;;4918997;29;20135;-93
2022/12/19 03:49:45;;;;;;;11.38;7.10;;;9.40;99.90;;;;;;4918012;29;20123;-92
2022/12/19 03:52:35;;;;;;;12.38;7.15;;;9.40;99.90;;;;;;4918682;29;20043;-91
2022/12/19 03:55:19;;;;;;;10.85;6.70;;;9.40;99.90;;;;;;4917697;29;20040;-92
2022/12/19 03:57:55;;;;;;;14.80;7.47;;;9.40;99.90;;;;;;4918473;29;20027;-92
2022/12/19 04:00:24;;;;;;;14.00;6.72;;;9.40;99.90;;;;;;4918832;29;20033;-93
2022/12/19 04:02:53;;;;;;;13.15;7.30;;;9.40;99.90;;;;;;4923620;29;20029;-94
2022/12/19 04:05:22;;;;;;;13.80;7.32;;;9.50;99.90;;;;;;4922408;29;20036;-93
2022/12/19 04:07:50;;;;;;;12.10;6.93;;;9.50;99.90;;;;;;4919385;29;20036;-94
2022/12/19 04:10:20;;;;;;;14.23;6.88;;;9.50;99.90;;;;;;4919893;29;20040;-93
2022/12/19 04:12:59;;;;;;;10.80;6.07;;;9.50;99.90;;;;;;4920132;29;20087;-92
2022/12/19 04:16:13;;;;;;;10.07;6.47;;;9.60;99.90;;;;;;4919982;29;20036;-92
2022/12/19 04:18:44;;;;;;;14.48;6.40;;;9.60;99.90;;;;;;4915656;29;20068;-93
2022/12/19 04:21:29;;;;;;;9.32;6.22;;;9.70;99.90;;;;;;4917631;29;20038;-93
2022/12/19 04:24:03;;;;;;;13.35;7.13;;;9.70;99.90;;;;;;4917978;29;20039;-93
2022/12/19 04:26:31;;;;;;;9.85;6.65;;;9.70;99.90;;;;;;4918765;29;20043;-92
2022/12/19 04:29:01;;;;;;;10.95;7.03;;;9.80;99.90;;;;;;4916979;29;20107;-94
2022/12/19 04:31:27;;;;;;;11.67;6.80;;;9.80;99.90;;;;;;4918955;29;20036;-94
2022/12/19 04:33:52;;;;;;;14.15;6.85;;;9.80;99.90;;;;;;4917573;29;20438;-94
2022/12/19 04:36:18;;;;;;;11.40;7.30;;;9.80;99.90;;;;;;4916530;29;20036;-93
2022/12/19 04:38:44;;;;;;;13.95;7.32;;;9.80;99.90;;;;;;4916893;29;20493;-94
2022/12/19 04:41:10;;;;;;;11.35;6.63;;;9.80;99.90;;;;;;4917266;29;20032;-95
2022/12/19 04:43:35;;;;;;;11.32;6.38;;;9.90;99.90;;;;;;4916756;29;20438;-94
2022/12/19 04:46:01;;;;;;;10.13;6.18;;;9.90;99.90;;;;;;4917091;29;20067;-94
2022/12/19 04:48:27;;;;;;;10.43;5.88;;;9.90;99.90;;;;;;4917117;29;20083;-92
2022/12/19 04:50:53;;;;;;;13.18;6.10;;;9.90;99.90;;;;;;4916859;29;20126;-94
2022/12/19 04:53:19;;;;;;;9.52;6.07;;;9.90;99.90;;;;;;4917381;29;20024;-94
2022/12/19 04:55:45;;;;;;;10.70;6.57;;;9.90;99.90;;;;;;4916888;29;20445;-94
2022/12/19 04:58:11;;;;;;;11.55;6.22;;;10.00;99.90;;;;;;4917246;29;20039;-92
2022/12/19 05:00:37;;;;;;;11.57;6.75;;;10.00;99.90;;;;;;4916542;29;20036;-95
2022/12/19 05:03:03;;;;;;;14.02;6.97;;;10.00;99.90;;;;;;4916928;29;20152;-94
2022/12/19 05:05:29;;;;;;;18.48;7.28;;;10.00;99.90;;;;;;4917410;29;20461;-93
2022/12/19 05:07:54;;;;;;;11.98;6.53;;;10.10;99.90;;;;;;4916941;29;20032;-93
2022/12/19 05:10:20;;;;;;;12.18;7.40;;;10.10;99.90;;;;;;4916261;29;20039;-92
2022/12/19 05:12:45;;;;;;;12.10;6.57;;;10.10;99.90;;;;;;4916841;29;20036;-92
2022/12/19 05:15:11;;;;;;;14.30;6.65;;;10.10;99.90;;;;;;4934850;29;20028;-91
2022/12/19 05:17:37;;;;;;;13.23;6.68;;;10.10;99.90;;;;;;4955350;28;20041;-93
2022/12/19 05:20:03;;;;;;;14.02;7.40;;;10.10;99.90;;;;;;4954568;29;20513;-92
2022/12/19 05:22:29;;;;;;;14.65;7.93;;;10.20;99.90;;;;;;4954830;29;20078;-93
2022/12/19 05:24:55;;;;;;;16.55;7.00;;;10.20;99.90;;;;;;4946122;28;20024;-93
2022/12/19 05:27:20;;;;;;;15.15;7.35;;;10.20;99.90;;;;;;4914625;29;20028;-92
2022/12/19 05:29:46;;;;;;;14.63;6.90;;;10.30;99.90;;;;;;4914275;29;20029;-94
2022/12/19 05:32:12;;;;;;;16.10;7.03;;;10.30;99.90;;;;;;4914507;29;20028;-93
2022/12/19 05:34:37;;;;;;;11.63;6.85;;;10.30;99.90;;;;;;4947088;29;20147;-94
2022/12/19 05:37:03;;;;;;;12.55;6.63;;;10.30;99.90;;;;;;4915044;29;20178;-93
2022/12/19 05:39:29;;;;;;;10.32;5.70;;;10.30;99.90;;;;;;4918104;29;20099;-95
2022/12/19 05:41:55;;;;;;;12.93;6.55;;;10.40;99.90;;;;;;4934595;29;20032;-94
2022/12/19 05:44:20;;;;;;;13.65;5.95;;;10.40;99.90;;;;;;4936933;29;20174;-93
2022/12/19 05:46:46;;;;;;;10.90;5.57;;;10.50;99.90;;;;;;4935150;29;20074;-93
2022/12/19 05:49:12;;;;;;;11.82;5.35;;;10.50;99.90;;;;;;4935484;29;20067;-94
2022/12/19 05:51:37;;;;;;;8.90;4.82;;;10.50;99.90;;;;;;4935875;29;20079;-95
2022/12/19 05:54:06;;;;;;;7.15;4.82;;;10.50;99.90;;;;;;4935998;29;20067;-94
2022/12/19 05:56:31;;;;;;;13.25;5.22;;;10.60;99.90;;;;;;4935950;29;20028;-93
2022/12/19 05:58:57;;;;;;;11.25;4.50;;;10.60;99.90;;;;;;4936415;29;20031;-94
2022/12/19 06:01:25;;;;;;;11.52;4.07;;;10.60;99.90;;;;;;4936289;29;20337;-93
2022/12/19 06:03:51;;;;;;;12.23;4.43;;;10.60;99.90;;;;;;4937871;29;20027;-92
2022/12/19 06:06:23;;;;;;;11.35;4.47;;;10.70;99.90;;;;;;4945100;29;20056;-95
2022/12/19 06:08:53;;;;;;;10.18;5.00;;;10.70;99.90;;;;;;4944285;29;20031;-93
2022/12/19 06:11:19;;;;;;;7.90;3.92;;;10.70;99.90;;;;;;4942840;29;20082;-92
2022/12/19 06:13:44;;;;;;;7.63;4.03;;;10.70;99.90;;;;;;4940603;29;20485;-94
2022/12/19 06:16:12;;;;;;;8.32;3.55;;;10.70;99.90;;;;;;4938083;29;20489;-95
2022/12/19 06:18:40;;;;;;;7.82;3.90;;;10.70;99.90;;;;;;4936621;29;20074;-94
2022/12/19 06:21:10;;;;;;;11.13;4.00;;;10.70;99.90;;;;;;4935202;29;20477;-95
2022/12/19 06:23:37;;;;;;;10.13;3.47;;;10.70;99.90;;;;;;4935112;29;20178;-92
2022/12/19 06:26:06;;;;;;;10.40;4.45;;;10.80;99.90;;;;;;4918879;29;20394;-93
2022/12/19 06:28:32;;;;;;;8.07;3.65;;;10.80;99.90;;;;;;4917089;29;20088;-93
2022/12/19 06:30:59;;;;;;;10.20;4.15;;;10.80;99.90;;;;;;4916205;29;20043;-93
2022/12/19 06:33:25;;;;;;;12.48;4.65;;;10.80;99.90;;;;;;4916845;29;20032;-93
2022/12/19 06:36:03;;;;;;;10.25;5.15;;;10.90;99.90;;;;;;4925392;29;20023;-94
2022/12/19 06:38:29;;;;;;;10.63;3.85;;;10.90;99.90;;;;;;4940124;29;20279;-95
2022/12/19 06:43:40;;;;;;;15.10;5.28;;;10.90;99.90;;;;;;4930617;29;20078;-93
2022/12/19 06:46:06;;;;;;;9.48;3.67;;;10.90;99.90;;;;;;4923591;29;20029;-93
2022/12/19 06:48:32;;;;;;;16.98;8.43;;;11.00;99.90;;;;;;4925188;29;20044;-92
2022/12/19 06:51:00;;;;;;;10.85;3.75;;;11.00;99.90;;;;;;4926780;29;20040;-93
2022/12/19 06:53:26;;;;;;;5.13;3.13;;;11.00;99.90;;;;;;4923212;29;20017;-94
2022/12/19 06:55:55;;;;;;;7.78;3.22;;;11.00;99.90;;;;;;4925207;29;20402;-93
2022/12/19 06:58:21;;;;;;;8.05;2.80;;;11.00;99.90;;;;;;4927500;29;20474;-92
2022/12/19 07:00:46;;;;;;;7.55;2.10;;;11.10;99.90;;;;;;4925592;29;20032;-94
2022/12/19 07:03:15;;;;;;;6.13;2.45;;;11.10;99.90;;;;;;4927528;29;20086;-94
2022/12/19 07:05:41;;;;;;;3.25;1.92;;;11.10;99.90;;;;;;4925483;29;20036;-93
2022/12/19 07:08:08;;;;;;;5.55;1.98;;;11.20;99.90;;;;;;4948022;29;20028;-93
2022/12/19 07:10:33;;;;;;;9.18;2.70;;;11.20;99.90;;;;;;4925274;29;20044;-94
2022/12/19 07:12:59;;;;;;;8.38;2.83;;;11.20;99.90;;;;;;4923556;29;20027;-94
2022/12/19 07:15:25;;;;;;;10.27;2.38;;;11.20;99.90;;;;;;4923753;29;20064;-94
2022/12/19 07:17:51;;;;;;;7.43;2.83;;;11.20;99.90;;;;;;4923980;29;20035;-93
2022/12/19 07:20:19;;;;;;;6.50;3.08;;;11.20;99.90;;;;;;4924531;29;20020;-93
2022/12/19 07:22:46;;;;;;;10.30;3.00;;;11.30;99.90;;;;;;4923864;29;20024;-94
2022/12/19 07:25:12;;;;;;;8.32;3.20;;;11.30;99.90;;;;;;4923585;29;20032;-91
2022/12/19 07:27:37;;;;;;;6.35;2.50;;;11.30;99.90;;;;;;4931243;29;20031;-93
2022/12/19 07:30:06;;;;;;;7.07;2.60;;;11.30;99.90;;;;;;4933405;29;20040;-94
2022/12/19 07:32:32;;;;;;;11.50;2.78;;;11.30;99.90;;;;;;4932708;29;20060;-92
2022/12/19 07:34:58;;;;;;;10.50;3.17;;;11.30;99.90;;;;;;4949544;29;20031;-92
2022/12/19 07:37:23;;;;;;;9.88;4.03;;;11.30;99.90;;;;;;4933374;29;20441;-91
2022/12/19 07:39:49;;;;;;;8.68;3.40;;;11.30;99.90;;;;;;4933387;29;20031;-91
2022/12/19 07:42:15;;;;;;;9.93;3.40;;;11.20;99.90;;;;;;4932947;29;20031;-92
2022/12/19 07:44:40;;;;;;;11.30;3.88;;;11.30;99.90;;;;;;4933314;29;20044;-93
2022/12/19 07:47:06;;;;;;;8.85;3.20;;;11.30;99.90;;;;;;4933595;29;20406;-92
2022/12/19 07:49:32;;;;;;;7.28;2.78;;;11.30;99.90;;;;;;4935950;29;20036;-92
2022/12/19 07:51:58;;;;;;;8.77;3.33;;;11.30;99.90;;;;;;4953924;28;20111;-92
2022/12/19 07:54:23;;;;;;;5.70;2.90;;;11.30;99.90;;;;;;4934161;29;20032;-94
2022/12/19 07:56:50;;;;;;;6.00;2.85;;;11.30;99.90;;;;;;4926662;29;20036;-93
2022/12/19 07:59:16;;;;;;;9.82;2.80;;;11.30;99.90;;;;;;4928801;29;20020;-92
2022/12/19 08:01:42;;;;;;;6.25;3.10;;;11.30;99.90;;;;;;4938479;29;20469;-93
2022/12/19 08:04:08;;;;;;;7.03;3.33;;;11.30;99.90;;;;;;4941127;29;20078;-93
2022/12/19 08:06:33;;;;;;;5.85;3.70;;;11.40;99.90;;;;;;4939636;29;20032;-92
2022/12/19 08:08:59;;;;;;;8.48;3.47;;;11.40;99.90;;;;;;4937407;29;20548;-93
2022/12/19 08:11:26;;;;;;;5.85;2.67;;;11.50;99.90;;;;;;4938424;29;20118;-92
2022/12/19 08:13:53;;;;;;;6.93;2.83;;;11.50;99.90;;;;;;4919914;29;20052;-93
2022/12/19 08:16:19;;;;;;;6.38;3.03;;;11.50;99.90;;;;;;4927503;29;20038;-93
2022/12/19 08:18:46;;;;;;;5.43;2.60;;;11.50;99.90;;;;;;4929607;29;20031;-92
2022/12/19 08:21:13;;;;;;;11.70;4.40;;;11.50;99.90;;;;;;4925601;29;20020;-94
2022/12/19 08:23:39;;;;;;;6.78;3.00;;;11.50;99.90;;;;;;4926281;29;20024;-93
2022/12/19 08:26:07;;;;;;;9.55;3.70;;;11.50;99.90;;;;;;4953158;29;20062;-93
2022/12/19 08:28:35;;;;;;;9.10;4.05;;;11.50;99.90;;;;;;4920287;29;20031;-95
2022/12/19 08:31:15;;;;;;;10.23;3.83;;;11.50;99.90;;;;;;4918657;29;20048;-95
2022/12/19 08:33:41;;;;;;;12.30;4.18;;;11.50;99.90;;;;;;4919208;29;20021;-96
2022/12/19 08:36:10;;;;;;;11.70;4.00;;;11.50;99.90;;;;;;4938398;29;20122;-96
2022/12/19 08:38:36;;;;;;;9.98;4.00;;;11.60;99.90;;;;;;4920976;29;20032;-94
2022/12/19 08:41:03;;;;;;;11.13;3.53;;;11.60;99.90;;;;;;4950112;28;20040;-92
2022/12/19 08:43:29;;;;;;;16.00;3.55;;;11.70;99.90;;;;;;4918949;29;20029;-94
2022/12/19 08:45:55;;;;;;;10.98;3.50;;;11.70;99.90;;;;;;4918493;29;20035;-93
2022/12/19 08:48:22;;;;;;;5.32;2.72;;;11.70;99.90;;;;;;4918677;29;20044;-94
2022/12/19 08:50:53;;;;;;;8.50;2.75;;;11.70;99.90;;;;;;4926128;29;20086;-91
2022/12/19 08:53:20;;;;;;;9.48;3.10;;;11.80;99.90;;;;;;4930533;29;20028;-91
2022/12/19 08:55:46;;;;;;;7.65;2.97;;;11.80;99.90;;;;;;4926565;29;20067;-93
2022/12/19 08:58:12;;;;;;;6.88;2.78;;;11.80;99.90;;;;;;4940449;29;20027;-95
2022/12/19 09:00:37;;;;;;;4.15;2.50;;;11.80;99.90;;;;;;4946550;29;20079;-93
2022/12/19 09:03:08;;;;;;;4.30;2.22;;;11.80;99.90;;;;;;4960755;28;20059;-94
2022/12/19 09:05:41;;;;;;;6.68;2.88;;;11.80;99.90;;;;;;4953953;29;20121;-94
2022/12/19 09:08:07;;;;;;;6.78;2.92;;;11.90;99.90;;;;;;4939844;29;20020;-93
2022/12/19 09:10:36;;;;;;;8.35;2.92;;;11.90;99.90;;;;;;4937212;29;20036;-94
2022/12/19 09:13:03;;;;;;;6.15;2.20;;;11.90;99.90;;;;;;4937846;29;20019;-95
2022/12/19 09:15:29;;;;;;;9.80;2.10;;;11.90;99.90;;;;;;4938690;29;20036;-95
2022/12/19 09:18:00;;;;;;;5.82;2.22;;;11.90;99.90;;;;;;4940933;29;20032;-96
2022/12/19 09:20:25;;;;;;;;;;;12.00;99.90;;;;;;4939613;29;20024;-95
2022/12/19 09:22:52;;;;;;;11.98;2.33;;;12.00;99.90;;;;;;4945698;29;19938;-92
2022/12/19 09:25:18;;;;;;;6.03;2.13;;;12.00;99.90;;;;;;4936063;29;20028;-94
2022/12/19 09:27:43;;;;;;;3.58;1.50;;;12.00;99.90;;;;;;4956595;29;20150;-92
2022/12/19 09:30:11;;;;;;;5.45;2.42;;;12.00;99.90;;;;;;4929122;29;20039;-94
2022/12/19 09:32:37;;;;;;;4.55;1.35;;;12.10;99.90;;;;;;4930593;29;20036;-92
2022/12/19 09:35:03;;;;;;;2.95;1.40;;;12.10;99.90;;;;;;4932523;29;20027;-94
2022/12/19 09:37:29;;;;;;;8.85;1.42;;;12.10;99.90;;;;;;4938257;29;20030;-94
2022/12/19 09:39:55;;;;;;;9.98;1.55;;;12.10;99.90;;;;;;4929460;29;20461;-93
2022/12/19 09:42:42;;;;;;;7.93;2.22;;;12.20;99.90;;;;;;4928688;29;20021;-92
2022/12/19 09:45:24;;;;;;;8.40;2.47;;;12.20;99.90;;;;;;4931513;29;20036;-94
2022/12/19 09:47:55;;;;;;;3.88;1.55;;;12.20;99.90;;;;;;4930058;29;20056;-92
2022/12/19 09:50:29;;;;;;;7.60;2.13;;;12.10;99.90;;;;;;4926700;29;20031;-94
2022/12/19 09:53:01;;;;;;;6.05;1.48;;;12.10;99.90;;;;;;4928759;29;20083;-95
2022/12/19 09:55:40;;;;;;;4.43;1.50;;;12.10;99.90;;;;;;4929762;29;20024;-93
2022/12/19 09:58:27;;;;;;;7.75;1.40;;;12.10;99.90;;;;;;4939563;29;20083;-93
2022/12/19 10:00:56;;;;;;;7.18;1.35;;;12.10;99.90;;;;;;4939824;29;20038;-93
2022/12/19 10:03:37;;;;;;;10.13;1.48;;;12.20;99.90;;;;;;4941057;29;20028;-93
2022/12/19 10:06:20;;;;;;;3.85;1.50;;;12.20;99.90;;;;;;4969907;29;20031;-92
2022/12/19 10:08:47;;;;;;;4.65;1.40;;;12.20;99.90;;;;;;4925801;29;20039;-93
2022/12/19 10:11:16;;;;;;;8.15;1.35;;;12.20;99.90;;;;;;4949723;28;20487;-96
2022/12/19 10:14:03;;;;;;;9.07;2.00;;;12.20;99.90;;;;;;4918955;29;20035;-95
2022/12/19 10:16:47;;;;;;;4.30;1.17;;;12.20;99.90;;;;;;4934714;29;20042;-94
2022/12/19 10:19:43;;;;;;;3.80;1.33;;;12.20;99.90;;;;;;4941818;29;20281;-94
2022/12/19 10:22:31;;;;;;;6.55;1.65;;;12.20;99.90;;;;;;4928571;29;20454;-93
2022/12/19 10:25:05;;;;;;;6.32;1.80;;;12.20;99.90;;;;;;4931472;29;20040;-95
2022/12/19 10:27:59;;;;;;;9.18;1.77;;;12.20;99.90;;;;;;4933761;29;20072;-96
2022/12/19 10:30:29;;;;;;;6.90;1.80;;;12.20;99.90;;;;;;4936976;29;20060;-94
2022/12/19 10:33:25;;;;;;;3.45;1.40;;;12.20;99.90;;;;;;4943892;29;20032;-94
2022/12/19 10:35:55;;;;;;;5.88;1.30;;;12.20;99.90;;;;;;4940973;29;20039;-93
2022/12/19 10:38:57;;;;;;;4.67;1.70;;;12.20;99.90;;;;;;4942312;29;20021;-95
2022/12/19 10:41:27;;;;;;;9.88;2.22;;;12.20;99.90;;;;;;4916198;29;20292;-92
2022/12/19 10:44:05;;;;;;;7.43;1.65;;;12.20;99.90;;;;;;4914809;29;20028;-94
2022/12/19 10:46:40;;;;;;;10.30;2.17;;;12.20;99.90;;;;;;4924409;29;20043;-95
2022/12/19 10:49:23;;;;;;;14.90;1.95;;;12.20;99.90;;;;;;4904704;29;20044;-95
2022/12/19 10:51:54;;;;;;;6.63;1.92;;;12.20;99.90;;;;;;4914750;29;20553;-95
2022/12/19 10:54:24;;;;;;;14.07;2.30;;;12.20;99.90;;;;;;4918891;29;20423;-93
2022/12/19 10:56:50;;;;;;;13.52;2.33;;;12.20;99.90;;;;;;4899793;29;20088;-91
2022/12/19 10:59:18;;;;;;;11.73;2.38;;;12.20;99.90;;;;;;4899997;29;20028;-92
2022/12/19 11:01:44;;;;;;;13.10;2.10;;;12.20;99.90;;;;;;4900047;29;20032;-93
2022/12/19 11:04:20;;;;;;;23.58;3.10;;;12.20;99.90;;;;;;4901854;29;20040;-93
2022/12/19 11:07:10;;;;;;;18.02;3.50;;;12.20;99.90;;;;;;4898927;29;20060;-95
2022/12/19 11:09:42;;;;;;;13.73;2.53;;;12.20;99.90;;;;;;4913566;29;20033;-94
2022/12/19 11:12:18;;;;;;;14.10;2.50;;;12.20;99.90;;;;;;4920360;29;20016;-94
2022/12/19 11:15:13;;;;;;;13.35;3.15;;;12.20;99.90;;;;;;4935818;29;20028;-94
2022/12/19 11:17:44;;;;;;;8.73;1.80;;;12.20;99.90;;;;;;4938582;29;20024;-93
2022/12/19 11:20:19;;;;;;;15.80;3.20;;;12.20;99.90;;;;;;4941503;29;20024;-92
2022/12/19 11:22:55;;;;;;;10.80;2.15;;;12.20;99.90;;;;;;4936371;29;20025;-94
2022/12/19 11:25:31;;;;;;;6.60;1.33;;;12.20;99.90;;;;;;4938998;29;20024;-94
2022/12/19 11:27:57;;;;;;;6.88;1.40;;;12.20;99.90;;;;;;4929401;29;20051;-93
2022/12/19 11:30:25;;;;;;;9.65;2.88;;;12.20;99.90;;;;;;4932158;29;20075;-94
2022/12/19 11:33:12;;;;;;;8.93;1.80;;;12.20;99.90;;;;;;4930612;29;20032;-93
2022/12/19 11:35:53;;;;;;;8.73;1.60;;;12.20;99.90;;;;;;4934297;29;20127;-93
2022/12/19 11:38:35;;;;;;;8.13;1.33;;;12.30;99.90;;;;;;4932443;29;20026;-94
2022/12/19 11:41:27;;;;;;;5.63;1.67;;;12.20;99.90;;;;;;4936074;29;20058;-95
2022/12/19 11:44:00;;;;;;;6.88;1.70;;;12.20;99.90;;;;;;4941498;29;20023;-93
2022/12/19 11:46:29;;;;;;;6.80;1.38;;;12.20;99.90;;;;;;4950536;29;20068;-95
2022/12/19 11:49:12;;;;;;;3.65;1.10;;;12.20;99.90;;;;;;4940394;29;20066;-94
2022/12/19 11:52:10;;;;;;;5.43;1.73;;;12.20;99.90;;;;;;4937282;29;20047;-95
2022/12/19 11:54:55;;;;;;;4.40;1.20;;;12.20;99.90;;;;;;4951556;29;20041;-94
2022/12/19 11:57:22;;;;;;;3.53;1.00;;;12.20;99.90;;;;;;4940505;29;20024;-95
2022/12/19 11:59:47;;;;;;;3.25;0.80;;;12.20;99.90;;;;;;4944643;29;20028;-94
2022/12/19 12:02:33;;;;;;;5.45;1.08;;;12.20;99.90;;;;;;4952826;29;20111;-94
2022/12/19 12:05:19;;;;;;;1.83;1.00;;;12.20;99.90;;;;;;4950452;29;20032;-93
2022/12/19 12:07:47;;;;;;;4.47;1.10;;;12.20;99.90;;;;;;4945247;29;20019;-95
2022/12/19 12:10:16;;;;;;;2.95;0.90;;;12.20;99.90;;;;;;4946812;29;20098;-93
2022/12/19 12:13:17;;;;;;;10.23;1.10;;;12.10;99.90;;;;;;4946786;29;20016;-94
2022/12/19 12:16:00;;;;;;;3.67;0.98;;;12.20;99.90;;;;;;4943596;29;20068;-95
2022/12/19 12:18:48;;;;;;;5.07;1.00;;;12.10;99.90;;;;;;4935478;29;20080;-94
2022/12/19 12:21:26;;;;;;;3.40;0.70;;;12.10;99.90;;;;;;4934692;29;20060;-94
2022/12/19 12:23:54;;;;;;;4.53;1.13;;;12.10;99.90;;;;;;4957772;29;20576;-94
2022/12/19 12:26:34;;;;;;;6.22;1.25;;;12.10;99.90;;;;;;4931789;29;20020;-93
2022/12/19 12:29:12;;;;;;;8.00;1.67;;;12.10;99.90;;;;;;4917699;29;20028;-93
2022/12/19 12:31:56;;;;;;;4.30;1.10;;;12.20;99.90;;;;;;4928485;29;20131;-93
2022/12/19 12:34:51;;;;;;;3.40;1.00;;;12.20;99.90;;;;;;4929926;29;20024;-95
2022/12/19 12:37:55;;;;;;;6.55;1.40;;;12.20;99.90;;;;;;4927264;29;20435;-94
2022/12/19 12:40:31;;;;;;;4.95;1.15;;;12.20;99.90;;;;;;4913764;29;20036;-94
2022/12/19 12:43:22;;;;;;;10.15;1.30;;;12.30;99.90;;;;;;4907803;29;20028;-94
2022/12/19 12:45:48;;;;;;;6.07;1.35;;;12.30;99.90;;;;;;4909741;29;20514;-93
2022/12/19 12:48:22;;;;;;;7.10;1.42;;;12.30;99.90;;;;;;4892933;29;20068;-93
2022/12/19 12:50:49;;;;;;;7.80;1.48;;;12.40;99.90;;;;;;4906429;29;20053;-95
2022/12/19 12:53:19;;;;;;;7.57;1.20;;;12.40;99.90;;;;;;4908010;29;20553;-93
2022/12/19 12:55:46;;;;;;;6.30;1.10;;;12.40;99.90;;;;;;4891327;29;20040;-93
2022/12/19 12:58:42;;;;;;;4.65;1.98;;;12.40;99.90;;;;;;4890822;29;20040;-94
2022/12/19 13:01:29;;;;;;;2.72;0.93;;;12.50;99.90;;;;;;4895934;29;20044;-95
2022/12/19 13:04:09;;;;;;;5.32;1.42;;;12.50;99.90;;;;;;4915932;29;20032;-95
2022/12/19 13:07:00;;;;;;;5.90;1.05;;;12.50;99.90;;;;;;4906128;29;20048;-94
2022/12/19 13:09:29;;;;;;;3.38;1.05;;;12.50;99.90;;;;;;4903734;29;20140;-96
2022/12/19 13:15:31;;;;;;;4.65;1.65;;;12.40;99.90;;;;;;4903610;29;20100;-95
2022/12/19 13:18:33;;;;;;;6.22;1.17;;;12.40;99.90;;;;;;4930430;29;20046;-94
2022/12/19 13:21:01;;;;;;;5.30;1.67;;;12.40;99.90;;;;;;4932125;29;20038;-95
2022/12/19 13:23:36;;;;;;;2.38;0.88;;;12.50;99.90;;;;;;4936721;29;20042;-94